Time;durP1;ratioP1;P1;durP2;ratioP2;P2;SDS_P1;SDS_P2;PMS_P1;PMS_P2;Temp;Humidity;BMP_temperature;BMP_pressure;BME280_temperature;BME280_humidity;BME280_pressure;Samples;Min_cycle;Max_cycle;Signal;HPM_P1;HPM_P2
2024/01/10 00:02:04;;;;;;;9.63;7.03;;;-3.50;99.90;;;;;;5093804;28;20226;-73
2024/01/10 00:04:30;;;;;;;12.83;5.97;;;-3.50;99.90;;;;;;5093513;28;20215;-74
2024/01/10 00:06:55;;;;;;;9.97;7.07;;;-3.50;99.90;;;;;;5093676;28;20269;-74
2024/01/10 00:09:21;;;;;;;12.57;6.73;;;-3.50;99.90;;;;;;5093220;28;20168;-75
2024/01/10 00:11:46;;;;;;;14.17;7.13;;;-3.60;99.90;;;;;;5093360;28;20168;-73
2024/01/10 00:14:12;;;;;;;10.70;6.33;;;-3.50;99.90;;;;;;5093503;28;20177;-74
2024/01/10 00:16:38;;;;;;;11.43;6.33;;;-3.60;99.90;;;;;;5093506;28;20168;-73
2024/01/10 00:19:03;;;;;;;11.63;6.23;;;-3.60;99.90;;;;;;5093653;28;20165;-75
2024/01/10 00:21:29;;;;;;;9.80;5.27;;;-3.60;99.90;;;;;;5093569;28;20647;-74
2024/01/10 00:23:54;;;;;;;11.03;6.50;;;-3.60;99.90;;;;;;5092993;28;20540;-74
2024/01/10 00:26:20;;;;;;;12.67;7.70;;;-3.60;99.90;;;;;;5075145;28;20171;-75
2024/01/10 00:28:46;;;;;;;10.63;6.97;;;-3.70;99.90;;;;;;5093425;28;20251;-75
2024/01/10 00:31:12;;;;;;;10.20;6.70;;;-3.70;99.90;;;;;;5093029;28;20220;-74
2024/01/10 00:33:39;;;;;;;12.80;6.80;;;-3.70;99.90;;;;;;5093311;28;20213;-76
2024/01/10 00:36:04;;;;;;;14.10;6.23;;;-3.70;99.90;;;;;;5093447;28;20172;-74
2024/01/10 00:38:30;;;;;;;12.70;7.33;;;-3.70;99.90;;;;;;5093299;28;20275;-76
2024/01/10 00:40:56;;;;;;;12.43;6.70;;;-3.70;99.90;;;;;;5093308;28;20172;-73
2024/01/10 00:43:22;;;;;;;11.67;7.53;;;-3.80;99.90;;;;;;5093149;28;20211;-74
2024/01/10 00:45:47;;;;;;;11.23;6.27;;;-3.80;99.90;;;;;;5093287;28;20165;-74
2024/01/10 00:48:13;;;;;;;13.53;7.63;;;-3.80;99.90;;;;;;5093167;28;20173;-74
2024/01/10 00:50:38;;;;;;;14.47;7.67;;;-3.90;99.90;;;;;;5093181;28;20194;-73
2024/01/10 00:53:04;;;;;;;13.43;7.67;;;-3.90;99.90;;;;;;5074847;28;20177;-74
2024/01/10 00:55:29;;;;;;;12.73;6.90;;;-3.90;99.90;;;;;;5093240;28;20197;-73
2024/01/10 00:57:55;;;;;;;9.50;6.50;;;-3.90;99.90;;;;;;5093052;28;20655;-74
2024/01/10 01:00:20;;;;;;;11.60;7.40;;;-3.90;99.90;;;;;;5093114;28;20638;-73
2024/01/10 01:02:46;;;;;;;9.23;6.30;;;-3.90;99.90;;;;;;5092986;28;20666;-74
2024/01/10 01:05:12;;;;;;;11.93;7.40;;;-3.90;99.90;;;;;;5093128;28;20209;-73
2024/01/10 01:07:37;;;;;;;13.63;8.23;;;-3.90;99.90;;;;;;5092704;28;20168;-75
2024/01/10 01:10:03;;;;;;;12.53;7.70;;;-4.00;99.90;;;;;;5094145;28;20184;-74
2024/01/10 01:12:29;;;;;;;11.17;5.57;;;-4.00;99.90;;;;;;5096779;28;20193;-73
2024/01/10 01:14:54;;;;;;;10.73;5.27;;;-4.00;99.90;;;;;;5096745;28;20164;-74
2024/01/10 01:17:20;;;;;;;16.33;8.13;;;-4.00;99.90;;;;;;5096808;28;20258;-74
2024/01/10 01:19:45;;;;;;;14.17;7.67;;;-4.10;99.90;;;;;;5096849;28;20173;-74
2024/01/10 01:22:11;;;;;;;12.40;8.07;;;-4.10;99.90;;;;;;5096216;28;20694;-74
2024/01/10 01:24:37;;;;;;;14.20;7.93;;;-4.10;99.90;;;;;;5096852;28;20223;-74
2024/01/10 01:27:03;;;;;;;13.47;6.97;;;-4.20;99.90;;;;;;5096553;28;20616;-75
2024/01/10 01:29:29;;;;;;;12.90;7.67;;;-4.20;99.90;;;;;;5096294;28;20243;-74
2024/01/10 01:31:54;;;;;;;14.40;8.17;;;-4.20;99.90;;;;;;5096684;28;20185;-73
2024/01/10 01:34:20;;;;;;;11.50;7.73;;;-4.20;99.90;;;;;;5096433;28;20639;-74
2024/01/10 01:36:45;;;;;;;12.60;8.47;;;-4.20;99.90;;;;;;5096090;28;20225;-74
2024/01/10 01:39:13;;;;;;;11.50;7.23;;;-4.20;99.90;;;;;;5096483;28;20246;-74
2024/01/10 01:41:39;;;;;;;15.50;8.60;;;-4.20;99.90;;;;;;5096266;28;20226;-75
2024/01/10 01:44:04;;;;;;;15.17;7.87;;;-4.30;99.90;;;;;;5096211;28;20180;-73
2024/01/10 01:46:31;;;;;;;14.97;7.97;;;-4.30;99.90;;;;;;5096116;28;20199;-74
2024/01/10 01:48:56;;;;;;;12.80;7.43;;;-4.30;99.90;;;;;;5096360;28;20176;-74
2024/01/10 01:51:22;;;;;;;17.60;8.87;;;-4.30;99.90;;;;;;5095822;28;20183;-74
2024/01/10 01:53:49;;;;;;;15.83;8.47;;;-4.30;99.90;;;;;;5096264;28;20169;-74
2024/01/10 01:56:16;;;;;;;12.77;7.50;;;-4.20;99.90;;;;;;5096208;28;20180;-73
2024/01/10 01:58:43;;;;;;;12.77;7.80;;;-4.20;99.90;;;;;;5096006;28;20191;-73
2024/01/10 02:01:11;;;;;;;14.10;8.07;;;-4.30;99.90;;;;;;5095894;28;20631;-73
2024/01/10 02:03:37;;;;;;;12.80;7.73;;;-4.30;99.90;;;;;;5077696;28;20219;-74
2024/01/10 02:06:03;;;;;;;11.70;7.00;;;-4.30;99.90;;;;;;5095641;28;20252;-74
2024/01/10 02:08:31;;;;;;;13.77;8.07;;;-4.30;99.90;;;;;;5095942;28;20217;-74
2024/01/10 02:10:57;;;;;;;14.40;7.97;;;-4.40;99.90;;;;;;5095874;28;20215;-73
2024/01/10 02:13:22;;;;;;;12.97;7.90;;;-4.40;99.90;;;;;;5095788;28;20176;-73
2024/01/10 02:15:48;;;;;;;14.00;7.57;;;-4.40;99.90;;;;;;5095813;28;20255;-73
2024/01/10 02:18:14;;;;;;;12.27;7.37;;;-4.40;99.90;;;;;;5095572;28;20173;-73
2024/01/10 02:20:42;;;;;;;14.03;7.90;;;-4.40;99.90;;;;;;5095013;28;20226;-74
2024/01/10 02:23:08;;;;;;;15.47;8.13;;;-4.40;99.90;;;;;;5095352;28;20216;-73
2024/01/10 02:25:35;;;;;;;12.03;7.43;;;-4.40;99.90;;;;;;5095570;28;20187;-73
2024/01/10 02:28:00;;;;;;;16.07;7.80;;;-4.40;99.90;;;;;;5095433;28;20194;-73
2024/01/10 02:30:26;;;;;;;13.03;7.20;;;-4.40;99.90;;;;;;5095067;28;20242;-73
2024/01/10 02:32:51;;;;;;;15.87;8.40;;;-4.40;99.90;;;;;;5095378;28;20204;-74
2024/01/10 02:35:17;;;;;;;11.13;7.63;;;-4.40;99.90;;;;;;5095111;28;20257;-74
2024/01/10 02:37:43;;;;;;;12.77;8.23;;;-4.40;99.90;;;;;;5095268;28;20191;-73
2024/01/10 02:40:08;;;;;;;14.17;8.67;;;-4.50;99.90;;;;;;5095205;28;20565;-73
2024/01/10 02:42:35;;;;;;;11.53;7.47;;;-4.50;99.90;;;;;;5095101;28;20200;-74
2024/01/10 02:45:00;;;;;;;13.40;7.20;;;-4.50;99.90;;;;;;5095241;28;20187;-73
2024/01/10 02:47:26;;;;;;;11.37;7.80;;;-4.50;99.90;;;;;;5095310;28;20699;-75
2024/01/10 02:49:52;;;;;;;14.27;8.23;;;-4.50;99.90;;;;;;5094868;28;20168;-73
2024/01/10 02:52:19;;;;;;;12.83;8.07;;;-4.50;99.90;;;;;;5094819;28;20171;-73
2024/01/10 02:54:45;;;;;;;14.90;7.80;;;-4.60;99.90;;;;;;5095070;28;20225;-72
2024/01/10 02:57:10;;;;;;;10.87;7.30;;;-4.60;99.90;;;;;;5095020;28;20181;-72
2024/01/10 02:59:36;;;;;;;12.93;8.17;;;-4.60;99.90;;;;;;5094854;28;20563;-73
2024/01/10 03:02:02;;;;;;;16.30;7.73;;;-4.60;99.90;;;;;;5094609;28;20642;-73
2024/01/10 03:04:27;;;;;;;15.77;8.23;;;-4.60;99.90;;;;;;5094401;28;20253;-73
2024/01/10 03:06:53;;;;;;;13.53;7.80;;;-4.60;99.90;;;;;;5094564;28;20626;-73
2024/01/10 03:09:18;;;;;;;14.37;8.03;;;-4.60;99.90;;;;;;5094656;28;20594;-72
2024/01/10 03:11:44;;;;;;;12.70;7.83;;;-4.60;99.90;;;;;;5076446;28;20262;-73
2024/01/10 03:14:11;;;;;;;12.97;7.93;;;-4.60;99.90;;;;;;5094555;28;20175;-72
2024/01/10 03:16:37;;;;;;;10.70;5.93;;;-4.70;99.90;;;;;;5094410;28;20631;-72
2024/01/10 03:19:03;;;;;;;13.57;7.67;;;-4.70;99.90;;;;;;5094110;28;20228;-73
2024/01/10 03:21:29;;;;;;;14.20;8.37;;;-4.70;99.90;;;;;;5094283;28;20167;-73
2024/01/10 03:23:58;;;;;;;12.43;8.07;;;-4.70;99.90;;;;;;5094270;28;20684;-73
2024/01/10 03:26:25;;;;;;;12.83;8.40;;;-4.70;99.90;;;;;;5094371;28;20267;-74
2024/01/10 03:28:50;;;;;;;14.03;8.17;;;-4.70;99.90;;;;;;5094407;28;20176;-74
2024/01/10 03:31:17;;;;;;;13.00;7.77;;;-4.60;99.90;;;;;;5053456;28;20227;-73
2024/01/10 03:33:43;;;;;;;13.63;7.50;;;-4.70;99.90;;;;;;5052859;28;20170;-73
2024/01/10 03:36:12;;;;;;;13.17;8.23;;;-4.70;99.90;;;;;;5053719;28;20226;-73
2024/01/10 03:38:37;;;;;;;20.30;10.17;;;-4.70;99.90;;;;;;5054058;28;20183;-74
2024/01/10 03:41:03;;;;;;;14.47;8.70;;;-4.70;99.90;;;;;;5053832;28;20161;-72
2024/01/10 03:43:29;;;;;;;14.43;8.80;;;-4.70;99.90;;;;;;5053972;28;20216;-73
2024/01/10 03:45:54;;;;;;;14.10;8.20;;;-4.80;99.90;;;;;;5053720;28;20173;-73
2024/01/10 03:48:20;;;;;;;16.83;8.70;;;-4.80;99.90;;;;;;5053374;28;20173;-72
2024/01/10 03:50:46;;;;;;;13.03;7.90;;;-4.80;99.90;;;;;;5053480;28;20201;-72
2024/01/10 03:53:11;;;;;;;13.17;8.17;;;-4.80;99.90;;;;;;5053462;28;20166;-72
2024/01/10 03:55:38;;;;;;;14.50;7.63;;;-4.80;99.90;;;;;;5053466;28;20169;-72
2024/01/10 03:58:03;;;;;;;12.57;6.77;;;-4.80;99.90;;;;;;5053731;28;20590;-73
2024/01/10 04:00:29;;;;;;;13.80;8.50;;;-4.80;99.90;;;;;;5053487;28;20267;-73
2024/01/10 04:02:54;;;;;;;14.03;8.30;;;-4.80;99.90;;;;;;5052982;28;20258;-72
2024/01/10 04:05:20;;;;;;;14.50;8.47;;;-4.80;99.90;;;;;;5053109;28;20210;-74
2024/01/10 04:07:46;;;;;;;14.77;8.23;;;-4.80;99.90;;;;;;5053455;28;20268;-73
2024/01/10 04:10:13;;;;;;;13.60;7.03;;;-4.90;99.90;;;;;;5053504;28;20227;-73
2024/01/10 04:12:49;;;;;;;13.07;8.00;;;-4.90;99.90;;;;;;5053271;28;20177;-74
2024/01/10 04:15:15;;;;;;;13.07;7.90;;;-4.90;99.90;;;;;;5053362;28;20176;-74
2024/01/10 04:17:41;;;;;;;10.87;7.10;;;-4.90;99.90;;;;;;5052525;28;20580;-73
2024/01/10 04:20:07;;;;;;;11.03;7.53;;;-4.90;99.90;;;;;;5053030;28;20165;-73
2024/01/10 04:22:32;;;;;;;16.03;8.07;;;-4.90;99.90;;;;;;5053006;28;20227;-73
2024/01/10 04:25:00;;;;;;;6.57;4.87;;;-4.90;99.90;;;;;;5053122;28;20669;-74
2024/01/10 04:27:26;;;;;;;6.53;4.10;;;-4.90;99.90;;;;;;5053321;28;20185;-72
2024/01/10 04:29:52;;;;;;;11.47;6.73;;;-4.90;99.90;;;;;;5067528;28;20333;-73
2024/01/10 04:32:18;;;;;;;14.53;7.37;;;-5.00;99.90;;;;;;5093121;28;20164;-74
2024/01/10 04:34:43;;;;;;;14.00;7.53;;;-4.90;99.90;;;;;;5093261;28;20168;-73
2024/01/10 04:37:09;;;;;;;16.23;8.30;;;-5.00;99.90;;;;;;5093402;28;20242;-73
2024/01/10 04:39:35;;;;;;;16.47;8.30;;;-5.00;99.90;;;;;;5093311;28;20622;-74
2024/01/10 04:42:01;;;;;;;14.97;8.27;;;-5.00;99.90;;;;;;5093128;28;20175;-74
2024/01/10 04:44:26;;;;;;;12.00;7.40;;;-5.00;99.90;;;;;;5094741;28;20262;-72
2024/01/10 04:46:52;;;;;;;11.43;7.37;;;-5.00;99.90;;;;;;5097329;28;20301;-74
2024/01/10 04:49:17;;;;;;;12.83;7.63;;;-5.10;99.90;;;;;;5097431;28;20254;-74
2024/01/10 04:51:43;;;;;;;16.00;8.70;;;-5.10;99.90;;;;;;5097051;28;20175;-74
2024/01/10 04:54:09;;;;;;;16.73;8.17;;;-5.10;99.90;;;;;;5096728;28;20179;-73
2024/01/10 04:56:38;;;;;;;13.83;8.70;;;-5.00;99.90;;;;;;5097033;28;20174;-74
2024/01/10 04:59:04;;;;;;;15.70;8.20;;;-5.00;99.90;;;;;;5096883;28;20254;-75
2024/01/10 05:01:30;;;;;;;14.77;8.50;;;-5.00;99.90;;;;;;5096946;28;20207;-74
2024/01/10 05:03:56;;;;;;;15.23;8.83;;;-5.00;99.90;;;;;;5096972;28;20284;-74
2024/01/10 05:06:21;;;;;;;14.37;8.83;;;-5.00;99.90;;;;;;5096865;28;20172;-73
2024/01/10 05:08:47;;;;;;;14.40;8.73;;;-5.00;99.90;;;;;;5096689;28;20232;-74
2024/01/10 05:11:14;;;;;;;14.77;8.43;;;-5.10;99.90;;;;;;5096932;28;20168;-74
2024/01/10 05:13:39;;;;;;;19.47;8.97;;;-5.10;99.90;;;;;;5096641;28;20179;-75
2024/01/10 05:16:05;;;;;;;13.57;7.63;;;-5.10;99.90;;;;;;5096412;28;20199;-74
2024/01/10 05:18:31;;;;;;;18.33;7.97;;;-5.10;99.90;;;;;;5096704;28;20172;-74
2024/01/10 05:20:57;;;;;;;15.60;8.43;;;-5.10;99.90;;;;;;5096818;28;20175;-73
2024/01/10 05:23:23;;;;;;;15.63;8.63;;;-5.10;99.90;;;;;;5096394;28;20211;-73
2024/01/10 05:25:49;;;;;;;14.77;8.40;;;-5.10;99.90;;;;;;5096420;28;20172;-73
2024/01/10 05:28:15;;;;;;;11.10;7.30;;;-5.20;99.90;;;;;;5096265;28;20205;-74
2024/01/10 05:30:42;;;;;;;16.40;8.10;;;-5.20;99.90;;;;;;5096200;28;20238;-74
2024/01/10 05:33:08;;;;;;;10.70;7.67;;;-5.20;99.90;;;;;;5095999;28;20163;-75
2024/01/10 05:35:35;;;;;;;13.87;8.73;;;-5.20;99.90;;;;;;5096275;28;20639;-74
2024/01/10 05:38:02;;;;;;;13.67;8.33;;;-5.20;99.90;;;;;;5078210;28;20179;-74
2024/01/10 05:40:30;;;;;;;13.87;7.63;;;-5.20;99.90;;;;;;5096103;28;20199;-74
2024/01/10 05:42:55;;;;;;;14.83;8.13;;;-5.20;99.90;;;;;;5095664;28;20207;-74
2024/01/10 05:45:21;;;;;;;12.93;8.27;;;-5.20;99.90;;;;;;5095465;28;20217;-73
2024/01/10 05:47:48;;;;;;;14.77;8.87;;;-5.20;99.90;;;;;;5095982;28;20190;-74
2024/01/10 05:50:13;;;;;;;18.50;9.13;;;-5.30;99.90;;;;;;5096026;28;20253;-73
2024/01/10 05:52:39;;;;;;;17.93;9.00;;;-5.20;99.90;;;;;;5078425;28;20207;-74
2024/01/10 05:55:07;;;;;;;15.73;7.77;;;-5.20;99.90;;;;;;5095756;28;20164;-74
2024/01/10 05:57:37;;;;;;;14.67;8.00;;;-5.20;99.90;;;;;;5094968;28;20684;-74
2024/01/10 06:00:04;;;;;;;15.47;8.67;;;-5.20;99.90;;;;;;5095231;28;20267;-75
2024/01/10 06:02:30;;;;;;;12.93;8.07;;;-5.10;99.90;;;;;;5095327;28;20199;-73
2024/01/10 06:04:56;;;;;;;16.00;8.40;;;-5.10;99.90;;;;;;5095074;28;20667;-74
2024/01/10 06:07:21;;;;;;;15.13;8.70;;;-5.10;99.90;;;;;;5077048;28;20168;-74
2024/01/10 06:09:47;;;;;;;14.50;8.57;;;-5.10;99.90;;;;;;5095365;28;20224;-73
2024/01/10 06:12:13;;;;;;;13.90;8.27;;;-5.10;99.90;;;;;;5094836;28;20175;-74
2024/01/10 06:14:39;;;;;;;14.00;8.87;;;-5.10;99.90;;;;;;5095561;28;20178;-74
2024/01/10 06:17:04;;;;;;;14.60;8.03;;;-5.10;99.90;;;;;;5095510;28;20246;-74
2024/01/10 06:19:33;;;;;;;13.13;7.07;;;-5.10;99.90;;;;;;5095103;28;20650;-75
2024/01/10 06:21:59;;;;;;;16.67;8.60;;;-5.10;99.90;;;;;;5094376;28;20209;-74
2024/01/10 06:24:26;;;;;;;12.40;8.07;;;-5.10;99.90;;;;;;5094858;28;20176;-74
2024/01/10 06:26:51;;;;;;;14.97;8.40;;;-5.10;99.90;;;;;;5094012;28;20168;-74
2024/01/10 06:29:18;;;;;;;13.47;8.43;;;-5.10;99.90;;;;;;5094023;28;20166;-75
2024/01/10 06:31:44;;;;;;;15.80;7.30;;;-5.10;99.90;;;;;;5076664;28;20180;-75
2024/01/10 06:34:09;;;;;;;12.70;7.37;;;-5.10;99.90;;;;;;5094823;28;20252;-73
2024/01/10 06:36:35;;;;;;;10.97;7.40;;;-5.20;99.90;;;;;;5094325;28;20243;-74
2024/01/10 06:39:01;;;;;;;17.63;8.80;;;-5.10;99.90;;;;;;5094322;28;20179;-75
2024/01/10 06:41:27;;;;;;;11.73;7.27;;;-5.10;99.90;;;;;;5094054;28;20172;-76
2024/01/10 06:43:53;;;;;;;15.70;7.73;;;-5.20;99.90;;;;;;5094300;28;20233;-74
2024/01/10 06:46:19;;;;;;;16.40;8.30;;;-5.20;99.90;;;;;;5076428;28;20259;-74
2024/01/10 06:48:44;;;;;;;13.80;7.73;;;-5.20;99.90;;;;;;5095050;28;20164;-74
2024/01/10 06:51:13;;;;;;;13.87;8.30;;;-5.20;99.90;;;;;;5094467;28;20164;-74
2024/01/10 06:53:39;;;;;;;17.47;7.87;;;-5.20;99.90;;;;;;5093596;28;20160;-74
2024/01/10 06:56:06;;;;;;;15.53;8.53;;;-5.20;99.90;;;;;;5093348;28;20248;-74
2024/01/10 06:58:32;;;;;;;14.13;8.83;;;-5.20;99.90;;;;;;5075712;28;20190;-74
2024/01/10 07:00:58;;;;;;;14.50;8.60;;;-5.20;99.90;;;;;;5094431;28;20168;-75
2024/01/10 07:03:23;;;;;;;14.80;8.70;;;-5.10;99.90;;;;;;5094060;28;20222;-75
2024/01/10 07:05:49;;;;;;;13.10;7.83;;;-5.10;99.90;;;;;;5093926;28;20335;-74
2024/01/10 07:08:14;;;;;;;13.87;7.80;;;-5.20;99.90;;;;;;5093031;28;20214;-76
2024/01/10 07:10:40;;;;;;;14.57;8.17;;;-5.20;99.90;;;;;;5093405;28;20171;-75
2024/01/10 07:13:06;;;;;;;13.70;8.07;;;-5.10;99.90;;;;;;5094080;28;20228;-75
2024/01/10 07:15:32;;;;;;;14.70;8.20;;;-5.10;99.90;;;;;;5092960;28;20160;-75
2024/01/10 07:17:57;;;;;;;13.70;8.00;;;-5.10;99.90;;;;;;5093794;28;20584;-75
2024/01/10 07:20:23;;;;;;;14.50;8.37;;;-5.10;99.90;;;;;;5093814;28;20179;-75
2024/01/10 07:22:51;;;;;;;17.17;8.60;;;-5.00;99.90;;;;;;5094045;28;20204;-74
2024/01/10 07:25:17;;;;;;;12.13;7.73;;;-5.10;99.90;;;;;;5093589;28;20190;-74
2024/01/10 07:27:43;;;;;;;17.07;9.07;;;-5.00;99.90;;;;;;5094130;28;20168;-76
2024/01/10 07:30:23;;;;;;;16.23;8.27;;;-5.00;99.90;;;;;;5110413;27;20556;-75
2024/01/10 07:32:48;;;;;;;14.57;7.80;;;-5.00;99.90;;;;;;5110166;28;20276;-74
2024/01/10 07:35:14;;;;;;;15.33;8.40;;;-4.90;99.90;;;;;;5110158;28;20171;-76
2024/01/10 07:37:42;;;;;;;14.97;7.70;;;-4.90;99.90;;;;;;5110504;28;20168;-76
2024/01/10 07:40:10;;;;;;;12.93;7.47;;;-4.90;99.90;;;;;;5109528;28;20235;-76
2024/01/10 07:42:36;;;;;;;15.67;9.00;;;-4.90;99.90;;;;;;5110175;28;20174;-74
2024/01/10 07:45:05;;;;;;;15.17;8.37;;;-4.90;99.90;;;;;;5110915;28;20259;-74
2024/01/10 07:47:31;;;;;;;15.93;7.53;;;-4.90;99.90;;;;;;5110791;28;20250;-74
2024/01/10 07:50:00;;;;;;;18.37;8.67;;;-4.90;99.90;;;;;;5110189;28;20207;-75
2024/01/10 07:52:26;;;;;;;12.63;7.53;;;-4.90;99.90;;;;;;5109769;28;20160;-74
2024/01/10 07:54:52;;;;;;;17.07;8.97;;;-4.90;99.90;;;;;;5109834;28;20231;-74
2024/01/10 07:57:19;;;;;;;17.13;9.20;;;-4.90;99.90;;;;;;5110409;28;20212;-74
2024/01/10 07:59:45;;;;;;;18.40;9.33;;;-4.90;99.90;;;;;;5109457;28;20167;-75
2024/01/10 08:02:11;;;;;;;13.87;8.53;;;-4.80;99.90;;;;;;5108695;28;20324;-75
2024/01/10 08:04:37;;;;;;;14.13;7.97;;;-4.80;99.90;;;;;;5109545;28;20324;-75
2024/01/10 08:07:03;;;;;;;12.83;8.17;;;-4.80;99.90;;;;;;5109698;28;20192;-75
2024/01/10 08:09:28;;;;;;;14.50;8.80;;;-4.80;99.90;;;;;;5109485;28;20207;-74
2024/01/10 08:11:54;;;;;;;15.90;8.30;;;-4.80;99.90;;;;;;5108189;28;20174;-74
2024/01/10 08:14:19;;;;;;;11.80;8.67;;;-4.80;99.90;;;;;;5109370;28;20172;-75
2024/01/10 08:16:45;;;;;;;15.10;8.43;;;-4.80;99.90;;;;;;5107809;28;20636;-71
2024/01/10 08:19:11;;;;;;;14.07;6.60;;;-4.70;99.90;;;;;;5107628;28;20285;-74
2024/01/10 08:21:36;;;;;;;15.63;8.17;;;-4.70;99.90;;;;;;5108582;28;20551;-73
2024/01/10 08:24:03;;;;;;;12.83;8.10;;;-4.70;99.90;;;;;;5109713;28;20167;-75
2024/01/10 08:26:29;;;;;;;11.57;8.00;;;-4.70;99.90;;;;;;5108286;28;20630;-75
2024/01/10 08:28:54;;;;;;;14.93;7.53;;;-4.70;99.90;;;;;;5109280;28;20276;-74
2024/01/10 08:31:20;;;;;;;13.87;8.70;;;-4.70;99.90;;;;;;5109551;28;20171;-74
2024/01/10 08:33:46;;;;;;;15.03;7.43;;;-4.60;99.90;;;;;;5094216;28;20180;-76
2024/01/10 08:36:12;;;;;;;17.23;10.70;;;-4.60;99.90;;;;;;5120400;27;20419;-73
2024/01/10 08:38:38;;;;;;;12.07;7.07;;;-4.40;99.90;;;;;;5126899;28;20171;-74
2024/01/10 08:41:04;;;;;;;15.33;7.90;;;-3.80;99.90;;;;;;5119075;27;20664;-76
2024/01/10 08:43:30;;;;;;;13.73;8.37;;;-3.40;99.90;;;;;;5114549;28;20250;-74
2024/01/10 08:45:57;;;;;;;15.53;8.80;;;-2.80;99.90;;;;;;5097348;28;20178;-73
2024/01/10 08:48:23;;;;;;;10.30;6.50;;;-2.40;99.90;;;;;;5095486;28;20195;-73
2024/01/10 08:50:50;;;;;;;13.87;7.60;;;-2.10;99.30;;;;;;5094874;28;20254;-71
2024/01/10 08:53:16;;;;;;;15.17;5.90;;;-1.60;99.20;;;;;;5094925;28;20176;-72
2024/01/10 08:55:42;;;;;;;12.27;7.63;;;-1.30;97.40;;;;;;5095220;28;20190;-72
2024/01/10 08:58:08;;;;;;;12.93;7.80;;;-1.10;97.20;;;;;;5095061;28;20160;-71
2024/01/10 09:00:34;;;;;;;14.37;9.00;;;-1.00;97.00;;;;;;5094619;28;20184;-72
2024/01/10 09:03:00;;;;;;;15.07;8.83;;;-0.70;96.60;;;;;;5094684;28;20192;-73
2024/01/10 09:05:26;;;;;;;11.90;7.13;;;-0.50;95.00;;;;;;5092651;28;20716;-73
2024/01/10 09:07:53;;;;;;;12.80;8.17;;;-0.40;94.80;;;;;;5094023;28;20166;-74
2024/01/10 09:10:21;;;;;;;13.83;7.77;;;-0.30;94.60;;;;;;5095257;28;20251;-72
2024/01/10 09:12:47;;;;;;;16.00;7.93;;;0.20;93.50;;;;;;5093944;28;20232;-70
2024/01/10 09:15:14;;;;;;;12.97;8.33;;;0.10;92.80;;;;;;5074270;28;20172;-75
2024/01/10 09:17:43;;;;;;;13.87;8.63;;;0.30;92.50;;;;;;5074037;28;20195;-72
2024/01/10 09:20:10;;;;;;;17.10;9.00;;;0.30;92.60;;;;;;5093418;28;20171;-72
2024/01/10 09:22:37;;;;;;;18.70;9.13;;;0.20;92.10;;;;;;5093325;28;20184;-72
2024/01/10 09:25:05;;;;;;;14.67;9.30;;;0.10;92.50;;;;;;5111440;28;20193;-73
2024/01/10 09:27:31;;;;;;;15.13;8.83;;;0.20;92.60;;;;;;5115115;28;20296;-72
2024/01/10 09:29:57;;;;;;;14.13;8.33;;;0.20;92.60;;;;;;5113500;28;20709;-72
2024/01/10 09:32:22;;;;;;;14.00;9.13;;;0.00;92.40;;;;;;5114418;28;20188;-73
2024/01/10 09:34:48;;;;;;;15.83;9.53;;;0.10;92.60;;;;;;5113447;28;20181;-72
2024/01/10 09:37:14;;;;;;;14.73;10.03;;;0.00;92.20;;;;;;5114293;28;20285;-70
2024/01/10 09:39:39;;;;;;;16.70;9.13;;;0.10;91.70;;;;;;5113363;28;20168;-72
2024/01/10 09:42:06;;;;;;;12.63;7.60;;;-0.60;92.30;;;;;;5113326;28;20672;-75
2024/01/10 09:44:33;;;;;;;16.63;9.73;;;-0.40;92.80;;;;;;5114687;28;20197;-72
2024/01/10 09:47:00;;;;;;;15.10;9.07;;;-0.10;93.00;;;;;;5112545;28;20174;-72
2024/01/10 09:49:26;;;;;;;15.80;9.07;;;0.40;92.20;;;;;;5116043;27;20207;-85
2024/01/10 09:52:01;;;;;;;12.00;8.50;;;0.20;91.90;;;;;;5113628;28;20257;-79
2024/01/10 09:54:29;;;;;;;13.97;7.43;;;0.00;91.60;;;;;;5114023;28;20194;-81
2024/01/10 09:56:56;;;;;;;13.20;8.67;;;0.50;91.50;;;;;;5118239;28;20171;-78
2024/01/10 09:59:21;;;;;;;13.30;8.20;;;0.50;90.80;;;;;;5114567;28;20202;-78
2024/01/10 10:01:47;;;;;;;15.77;9.10;;;0.60;91.00;;;;;;5114421;28;20171;-79
2024/01/10 10:04:15;;;;;;;13.03;8.43;;;0.70;90.70;;;;;;5113231;28;20308;-81
2024/01/10 10:06:40;;;;;;;14.60;9.30;;;0.50;90.20;;;;;;5115013;28;20171;-79
2024/01/10 10:09:07;;;;;;;12.30;8.00;;;0.20;91.40;;;;;;5115871;28;20230;-79
2024/01/10 10:11:33;;;;;;;12.70;8.70;;;0.20;91.30;;;;;;5116577;28;20384;-82
2024/01/10 10:14:15;;;;;;;13.50;8.67;;;0.50;90.50;;;;;;5115395;28;20198;-77
2024/01/10 10:16:41;;;;;;;13.50;8.70;;;0.50;90.30;;;;;;5114227;28;20163;-75
2024/01/10 10:19:06;;;;;;;13.60;9.47;;;0.00;91.20;;;;;;5113217;28;20185;-75
2024/01/10 10:21:33;;;;;;;13.93;9.03;;;0.20;91.50;;;;;;5113501;28;20177;-73
2024/01/10 10:24:01;;;;;;;16.60;8.37;;;0.40;90.90;;;;;;5113070;28;20170;-74
2024/01/10 10:26:29;;;;;;;16.07;8.80;;;0.50;90.50;;;;;;5113496;28;20657;-71
2024/01/10 10:28:55;;;;;;;13.43;8.03;;;0.50;90.50;;;;;;5108443;28;20220;-76
2024/01/10 10:31:22;;;;;;;17.00;9.50;;;0.80;90.10;;;;;;5093262;28;20164;-78
2024/01/10 10:33:53;;;;;;;12.60;6.87;;;0.90;89.60;;;;;;5092539;28;20167;-74
2024/01/10 10:36:20;;;;;;;17.33;9.33;;;0.80;90.00;;;;;;5093234;28;20160;-73
2024/01/10 10:38:48;;;;;;;14.70;9.40;;;0.50;90.90;;;;;;5096487;28;20174;-76
2024/01/10 10:41:14;;;;;;;18.07;10.10;;;0.90;90.20;;;;;;5113289;28;20179;-74
2024/01/10 10:43:40;;;;;;;15.43;9.70;;;0.80;91.00;;;;;;5112524;27;20160;-75
2024/01/10 10:46:09;;;;;;;20.37;9.67;;;0.70;90.50;;;;;;5112805;28;20239;-76
2024/01/10 10:48:36;;;;;;;15.50;8.53;;;0.60;90.50;;;;;;5112368;28;20274;-73
2024/01/10 10:51:07;;;;;;;17.10;9.27;;;0.60;90.30;;;;;;5113044;27;20174;-75
2024/01/10 10:53:38;;;;;;;14.77;9.53;;;0.40;90.90;;;;;;5111959;28;20174;-73
2024/01/10 10:56:05;;;;;;;16.00;8.43;;;0.50;91.10;;;;;;5112583;28;20179;-75
2024/01/10 10:58:36;;;;;;;15.60;9.63;;;0.30;91.20;;;;;;5100731;28;20226;-74
2024/01/10 11:01:05;;;;;;;15.13;9.57;;;0.20;91.70;;;;;;5083291;28;20627;-73
2024/01/10 11:03:33;;;;;;;17.47;8.40;;;0.00;91.70;;;;;;5079146;28;20219;-74
2024/01/10 11:06:00;;;;;;;16.40;9.83;;;0.00;92.00;;;;;;5092487;28;20171;-75
2024/01/10 11:08:27;;;;;;;15.07;9.27;;;0.30;91.70;;;;;;5110620;28;20653;-75
2024/01/10 11:10:54;;;;;;;16.43;9.53;;;0.30;91.80;;;;;;5112749;28;20236;-76
2024/01/10 11:13:34;;;;;;;20.30;9.73;;;0.40;91.80;;;;;;5096199;28;20176;-72
2024/01/10 11:16:18;;;;;;;18.37;9.50;;;0.50;91.80;;;;;;5091777;28;20281;-73
2024/01/10 11:18:59;;;;;;;14.30;9.73;;;0.80;91.30;;;;;;5112607;28;20191;-76
2024/01/10 11:22:02;;;;;;;15.77;9.73;;;0.80;91.00;;;;;;5112109;28;20201;-75
2024/01/10 11:24:28;;;;;;;18.87;9.37;;;0.60;91.00;;;;;;5091481;28;20272;-76
2024/01/10 11:27:08;;;;;;;14.17;7.83;;;0.60;91.10;;;;;;5091410;28;20176;-75
2024/01/10 11:29:36;;;;;;;14.00;9.47;;;0.70;91.00;;;;;;5092312;28;20243;-76
2024/01/10 11:32:01;;;;;;;19.57;9.03;;;0.50;90.90;;;;;;5092041;28;20175;-75
2024/01/10 11:34:27;;;;;;;14.87;8.43;;;0.30;90.80;;;;;;5092252;28;20172;-76
2024/01/10 11:37:12;;;;;;;15.43;10.30;;;0.50;90.70;;;;;;5092416;28;20250;-75
2024/01/10 11:39:41;;;;;;;14.30;9.90;;;0.30;91.00;;;;;;5092575;28;20181;-75
2024/01/10 11:42:09;;;;;;;16.57;9.67;;;0.40;91.00;;;;;;5092225;28;20186;-74
2024/01/10 11:44:46;;;;;;;15.40;9.67;;;0.60;90.90;;;;;;5091603;28;20258;-74
2024/01/10 11:47:14;;;;;;;16.47;9.13;;;0.90;90.10;;;;;;5090804;28;20180;-74
2024/01/10 11:49:40;;;;;;;14.53;9.70;;;0.80;90.00;;;;;;5091599;28;20214;-74
2024/01/10 11:52:05;;;;;;;18.00;10.53;;;0.60;90.10;;;;;;5091214;28;20172;-74
2024/01/10 11:54:44;;;;;;;15.75;10.95;;;0.90;90.00;;;;;;5092078;28;20411;-73
2024/01/10 11:57:14;;;;;;;18.83;10.40;;;0.90;89.20;;;;;;5090752;28;20314;-74
2024/01/10 11:59:43;;;;;;;17.50;10.13;;;0.90;88.80;;;;;;5092350;28;20184;-74
2024/01/10 12:02:08;;;;;;;16.37;9.80;;;1.10;89.40;;;;;;5092035;28;20256;-74
2024/01/10 12:04:34;;;;;;;21.50;13.67;;;1.20;87.80;;;;;;5092393;28;20222;-73
2024/01/10 12:07:03;;;;;;;17.50;10.63;;;1.10;88.40;;;;;;5092419;28;20583;-74
2024/01/10 12:09:30;;;;;;;15.00;8.30;;;1.00;87.10;;;;;;5091587;28;20277;-74
2024/01/10 12:11:55;;;;;;;15.90;10.07;;;0.80;87.40;;;;;;5091583;28;20239;-73
2024/01/10 12:14:21;;;;;;;23.03;10.70;;;0.70;89.00;;;;;;5091721;28;20186;-73
2024/01/10 12:16:47;;;;;;;14.87;10.33;;;0.90;89.20;;;;;;5094737;28;20179;-74
2024/01/10 12:19:13;;;;;;;20.80;10.67;;;0.80;89.10;;;;;;5094372;28;20522;-74
2024/01/10 12:21:39;;;;;;;18.20;10.83;;;1.00;89.30;;;;;;5094291;28;20172;-73
2024/01/10 12:24:06;;;;;;;16.20;9.30;;;0.70;88.70;;;;;;5094684;28;20184;-73
2024/01/10 12:26:32;;;;;;;18.77;11.27;;;0.40;88.70;;;;;;5085226;28;20179;-75
2024/01/10 12:28:59;;;;;;;19.03;11.03;;;0.00;90.70;;;;;;5080360;28;20254;-75
2024/01/10 12:31:29;;;;;;;19.67;10.90;;;0.00;90.70;;;;;;5115736;28;20161;-74
2024/01/10 12:33:59;;;;;;;20.50;10.13;;;0.00;91.30;;;;;;5115277;28;20227;-73
2024/01/10 12:36:24;;;;;;;13.63;8.30;;;0.20;90.80;;;;;;5115973;28;20170;-74